sensor_id;sensor_type;location;lat;lon;timestamp;P1;durP1;ratioP1;P2;durP2;ratioP2
54241;SDS011;40156;51.080;17.082;2022-10-16T00:00:13;15.18;;;8.35;;
54241;SDS011;40156;51.080;17.082;2022-10-16T00:03:01;15.02;;;7.03;;
54241;SDS011;40156;51.080;17.082;2022-10-16T00:05:48;11.27;;;6.40;;
54241;SDS011;40156;51.080;17.082;2022-10-16T00:08:18;13.15;;;7.15;;
54241;SDS011;40156;51.080;17.082;2022-10-16T00:11:04;12.35;;;6.40;;
54241;SDS011;40156;51.080;17.082;2022-10-16T00:13:36;10.68;;;6.65;;
54241;SDS011;40156;51.080;17.082;2022-10-16T00:16:04;9.90;;;6.28;;
54241;SDS011;40156;51.080;17.082;2022-10-16T00:18:32;10.20;;;5.88;;
54241;SDS011;40156;51.080;17.082;2022-10-16T00:21:04;9.90;;;6.30;;
54241;SDS011;40156;51.080;17.082;2022-10-16T00:23:35;9.15;;;6.10;;
54241;SDS011;40156;51.080;17.082;2022-10-16T00:26:04;10.70;;;6.97;;
54241;SDS011;40156;51.080;17.082;2022-10-16T00:28:32;12.40;;;7.10;;
54241;SDS011;40156;51.080;17.082;2022-10-16T00:31:05;11.70;;;7.28;;
54241;SDS011;40156;51.080;17.082;2022-10-16T00:33:35;10.77;;;6.70;;
54241;SDS011;40156;51.080;17.082;2022-10-16T00:36:04;11.55;;;6.65;;
54241;SDS011;40156;51.080;17.082;2022-10-16T00:38:31;11.43;;;6.25;;
54241;SDS011;40156;51.080;17.082;2022-10-16T00:40:59;10.40;;;5.80;;
54241;SDS011;40156;51.080;17.082;2022-10-16T00:43:47;10.23;;;5.88;;
54241;SDS011;40156;51.080;17.082;2022-10-16T00:49:18;10.25;;;5.13;;
54241;SDS011;40156;51.080;17.082;2022-10-16T00:51:49;8.85;;;5.47;;
54241;SDS011;40156;51.080;17.082;2022-10-16T00:56:53;9.93;;;4.72;;
54241;SDS011;40156;51.080;17.082;2022-10-16T00:59:23;11.07;;;5.10;;
54241;SDS011;40156;51.080;17.082;2022-10-16T01:01:54;11.87;;;5.40;;
54241;SDS011;40156;51.080;17.082;2022-10-16T01:04:23;8.02;;;4.65;;
54241;SDS011;40156;51.080;17.082;2022-10-16T01:12:28;7.68;;;4.70;;
54241;SDS011;40156;51.080;17.082;2022-10-16T01:17:47;6.80;;;4.97;;
54241;SDS011;40156;51.080;17.082;2022-10-16T01:23:47;10.40;;;4.20;;
54241;SDS011;40156;51.080;17.082;2022-10-16T01:31:15;16.83;;;5.35;;
54241;SDS011;40156;51.080;17.082;2022-10-16T01:33:51;6.45;;;4.60;;
54241;SDS011;40156;51.080;17.082;2022-10-16T01:36:29;8.98;;;4.65;;
54241;SDS011;40156;51.080;17.082;2022-10-16T01:39:03;6.75;;;4.55;;
54241;SDS011;40156;51.080;17.082;2022-10-16T01:41:40;8.30;;;4.72;;
54241;SDS011;40156;51.080;17.082;2022-10-16T01:44:28;6.53;;;4.32;;
54241;SDS011;40156;51.080;17.082;2022-10-16T01:47:00;6.75;;;4.60;;
54241;SDS011;40156;51.080;17.082;2022-10-16T01:49:30;7.35;;;4.90;;
54241;SDS011;40156;51.080;17.082;2022-10-16T01:51:59;6.65;;;5.18;;
54241;SDS011;40156;51.080;17.082;2022-10-16T01:54:30;9.77;;;4.93;;
54241;SDS011;40156;51.080;17.082;2022-10-16T01:57:01;8.32;;;5.00;;
54241;SDS011;40156;51.080;17.082;2022-10-16T01:59:35;12.10;;;5.63;;
54241;SDS011;40156;51.080;17.082;2022-10-16T02:02:06;8.55;;;5.18;;
54241;SDS011;40156;51.080;17.082;2022-10-16T02:04:42;9.23;;;5.40;;
54241;SDS011;40156;51.080;17.082;2022-10-16T02:07:13;9.13;;;5.18;;
54241;SDS011;40156;51.080;17.082;2022-10-16T02:09:41;8.15;;;5.72;;
54241;SDS011;40156;51.080;17.082;2022-10-16T02:12:10;9.73;;;5.43;;
54241;SDS011;40156;51.080;17.082;2022-10-16T02:15:07;13.57;;;5.70;;
54241;SDS011;40156;51.080;17.082;2022-10-16T02:17:35;9.48;;;6.10;;
54241;SDS011;40156;51.080;17.082;2022-10-16T02:20:04;7.70;;;5.93;;
54241;SDS011;40156;51.080;17.082;2022-10-16T02:22:34;11.95;;;6.10;;
54241;SDS011;40156;51.080;17.082;2022-10-16T02:25:06;10.38;;;5.97;;
54241;SDS011;40156;51.080;17.082;2022-10-16T02:30:37;9.27;;;6.45;;
54241;SDS011;40156;51.080;17.082;2022-10-16T02:33:10;11.02;;;6.28;;
54241;SDS011;40156;51.080;17.082;2022-10-16T02:35:38;11.50;;;5.85;;
54241;SDS011;40156;51.080;17.082;2022-10-16T02:38:07;11.90;;;6.28;;
54241;SDS011;40156;51.080;17.082;2022-10-16T02:40:41;10.45;;;6.38;;
54241;SDS011;40156;51.080;17.082;2022-10-16T02:43:10;9.63;;;6.50;;
54241;SDS011;40156;51.080;17.082;2022-10-16T02:45:38;9.55;;;5.60;;
54241;SDS011;40156;51.080;17.082;2022-10-16T02:48:06;10.20;;;6.22;;
54241;SDS011;40156;51.080;17.082;2022-10-16T02:50:35;14.23;;;6.25;;
54241;SDS011;40156;51.080;17.082;2022-10-16T02:53:13;12.65;;;5.85;;
54241;SDS011;40156;51.080;17.082;2022-10-16T02:55:42;9.23;;;5.95;;
54241;SDS011;40156;51.080;17.082;2022-10-16T02:58:18;8.73;;;5.70;;
54241;SDS011;40156;51.080;17.082;2022-10-16T03:00:46;8.93;;;6.22;;
54241;SDS011;40156;51.080;17.082;2022-10-16T03:03:14;12.07;;;6.10;;
54241;SDS011;40156;51.080;17.082;2022-10-16T03:05:43;12.70;;;6.13;;
54241;SDS011;40156;51.080;17.082;2022-10-16T03:08:10;15.27;;;6.20;;
54241;SDS011;40156;51.080;17.082;2022-10-16T03:10:38;8.20;;;5.38;;
54241;SDS011;40156;51.080;17.082;2022-10-16T03:13:06;8.77;;;5.57;;
54241;SDS011;40156;51.080;17.082;2022-10-16T03:15:34;11.50;;;6.30;;
54241;SDS011;40156;51.080;17.082;2022-10-16T03:18:02;11.38;;;6.13;;
54241;SDS011;40156;51.080;17.082;2022-10-16T03:20:30;12.65;;;5.80;;
54241;SDS011;40156;51.080;17.082;2022-10-16T03:22:58;11.23;;;6.43;;
54241;SDS011;40156;51.080;17.082;2022-10-16T03:25:26;10.60;;;6.50;;
54241;SDS011;40156;51.080;17.082;2022-10-16T03:27:53;9.07;;;6.10;;
54241;SDS011;40156;51.080;17.082;2022-10-16T03:30:21;10.07;;;5.70;;
54241;SDS011;40156;51.080;17.082;2022-10-16T03:32:48;11.00;;;6.07;;
54241;SDS011;40156;51.080;17.082;2022-10-16T03:35:17;12.50;;;6.30;;
54241;SDS011;40156;51.080;17.082;2022-10-16T03:37:44;11.15;;;6.38;;
54241;SDS011;40156;51.080;17.082;2022-10-16T03:40:13;9.95;;;6.18;;
54241;SDS011;40156;51.080;17.082;2022-10-16T03:42:42;12.10;;;5.82;;
54241;SDS011;40156;51.080;17.082;2022-10-16T03:45:10;11.57;;;7.10;;
54241;SDS011;40156;51.080;17.082;2022-10-16T03:47:38;11.23;;;6.57;;
54241;SDS011;40156;51.080;17.082;2022-10-16T03:50:06;11.27;;;6.90;;
54241;SDS011;40156;51.080;17.082;2022-10-16T03:52:34;10.77;;;6.55;;
54241;SDS011;40156;51.080;17.082;2022-10-16T03:55:02;10.93;;;6.43;;
54241;SDS011;40156;51.080;17.082;2022-10-16T03:57:31;10.98;;;7.43;;
54241;SDS011;40156;51.080;17.082;2022-10-16T03:59:59;9.00;;;5.75;;
54241;SDS011;40156;51.080;17.082;2022-10-16T04:02:27;10.82;;;6.53;;
54241;SDS011;40156;51.080;17.082;2022-10-16T04:04:55;10.23;;;5.85;;
54241;SDS011;40156;51.080;17.082;2022-10-16T04:07:22;9.07;;;5.47;;
54241;SDS011;40156;51.080;17.082;2022-10-16T04:09:50;9.38;;;6.18;;
54241;SDS011;40156;51.080;17.082;2022-10-16T04:12:18;10.00;;;6.63;;
54241;SDS011;40156;51.080;17.082;2022-10-16T04:14:46;9.18;;;6.20;;
54241;SDS011;40156;51.080;17.082;2022-10-16T04:17:14;9.10;;;6.15;;
54241;SDS011;40156;51.080;17.082;2022-10-16T04:19:42;10.18;;;6.03;;
54241;SDS011;40156;51.080;17.082;2022-10-16T04:22:10;11.95;;;6.15;;
54241;SDS011;40156;51.080;17.082;2022-10-16T04:24:39;10.50;;;5.75;;
54241;SDS011;40156;51.080;17.082;2022-10-16T04:27:07;8.90;;;5.80;;
54241;SDS011;40156;51.080;17.082;2022-10-16T04:29:36;8.45;;;5.95;;
54241;SDS011;40156;51.080;17.082;2022-10-16T04:32:05;10.30;;;6.07;;
54241;SDS011;40156;51.080;17.082;2022-10-16T04:34:35;9.40;;;5.70;;
54241;SDS011;40156;51.080;17.082;2022-10-16T04:37:06;8.57;;;5.45;;
54241;SDS011;40156;51.080;17.082;2022-10-16T04:39:34;8.40;;;5.00;;
54241;SDS011;40156;51.080;17.082;2022-10-16T04:42:02;8.95;;;5.97;;
54241;SDS011;40156;51.080;17.082;2022-10-16T04:44:30;8.35;;;5.38;;
54241;SDS011;40156;51.080;17.082;2022-10-16T04:46:57;8.35;;;5.75;;
54241;SDS011;40156;51.080;17.082;2022-10-16T04:49:25;8.60;;;5.05;;
54241;SDS011;40156;51.080;17.082;2022-10-16T04:51:53;9.55;;;5.70;;
54241;SDS011;40156;51.080;17.082;2022-10-16T04:54:21;10.93;;;6.10;;
54241;SDS011;40156;51.080;17.082;2022-10-16T04:56:49;11.20;;;6.93;;
54241;SDS011;40156;51.080;17.082;2022-10-16T04:59:18;9.07;;;5.95;;
54241;SDS011;40156;51.080;17.082;2022-10-16T05:01:47;12.00;;;6.72;;
54241;SDS011;40156;51.080;17.082;2022-10-16T05:04:15;9.80;;;6.43;;
54241;SDS011;40156;51.080;17.082;2022-10-16T05:06:42;8.90;;;5.93;;
54241;SDS011;40156;51.080;17.082;2022-10-16T05:09:10;10.05;;;5.85;;
54241;SDS011;40156;51.080;17.082;2022-10-16T05:11:38;9.80;;;5.95;;
54241;SDS011;40156;51.080;17.082;2022-10-16T05:14:07;11.35;;;6.57;;
54241;SDS011;40156;51.080;17.082;2022-10-16T05:16:34;11.00;;;6.65;;
54241;SDS011;40156;51.080;17.082;2022-10-16T05:19:03;14.95;;;7.30;;
54241;SDS011;40156;51.080;17.082;2022-10-16T05:21:51;10.40;;;6.13;;
54241;SDS011;40156;51.080;17.082;2022-10-16T05:24:19;9.65;;;6.60;;
54241;SDS011;40156;51.080;17.082;2022-10-16T05:26:47;11.23;;;6.55;;
54241;SDS011;40156;51.080;17.082;2022-10-16T05:29:14;10.52;;;6.40;;
54241;SDS011;40156;51.080;17.082;2022-10-16T05:31:42;10.23;;;5.63;;
54241;SDS011;40156;51.080;17.082;2022-10-16T05:34:10;10.50;;;6.63;;
54241;SDS011;40156;51.080;17.082;2022-10-16T05:36:38;10.07;;;5.88;;
54241;SDS011;40156;51.080;17.082;2022-10-16T05:39:06;9.10;;;6.20;;
54241;SDS011;40156;51.080;17.082;2022-10-16T05:41:34;10.50;;;5.90;;
54241;SDS011;40156;51.080;17.082;2022-10-16T05:44:05;12.88;;;7.07;;
54241;SDS011;40156;51.080;17.082;2022-10-16T05:46:33;11.67;;;6.03;;
54241;SDS011;40156;51.080;17.082;2022-10-16T05:49:02;10.90;;;6.68;;
54241;SDS011;40156;51.080;17.082;2022-10-16T05:51:30;11.93;;;6.35;;
54241;SDS011;40156;51.080;17.082;2022-10-16T05:53:58;9.68;;;6.20;;
54241;SDS011;40156;51.080;17.082;2022-10-16T05:56:25;11.15;;;6.28;;
54241;SDS011;40156;51.080;17.082;2022-10-16T05:58:53;9.63;;;6.28;;
54241;SDS011;40156;51.080;17.082;2022-10-16T06:01:21;9.30;;;6.30;;
54241;SDS011;40156;51.080;17.082;2022-10-16T06:03:50;9.98;;;6.22;;
54241;SDS011;40156;51.080;17.082;2022-10-16T06:06:22;11.60;;;6.95;;
54241;SDS011;40156;51.080;17.082;2022-10-16T06:08:54;10.50;;;7.10;;
54241;SDS011;40156;51.080;17.082;2022-10-16T06:11:24;11.00;;;6.43;;
54241;SDS011;40156;51.080;17.082;2022-10-16T06:13:57;12.73;;;6.65;;
54241;SDS011;40156;51.080;17.082;2022-10-16T06:16:28;9.77;;;6.25;;
54241;SDS011;40156;51.080;17.082;2022-10-16T06:18:55;9.80;;;6.57;;
54241;SDS011;40156;51.080;17.082;2022-10-16T06:21:24;9.82;;;5.90;;
54241;SDS011;40156;51.080;17.082;2022-10-16T06:23:53;11.60;;;6.80;;
54241;SDS011;40156;51.080;17.082;2022-10-16T06:26:23;11.23;;;5.95;;
54241;SDS011;40156;51.080;17.082;2022-10-16T06:28:54;13.75;;;6.53;;
54241;SDS011;40156;51.080;17.082;2022-10-16T06:31:23;11.45;;;6.70;;
54241;SDS011;40156;51.080;17.082;2022-10-16T06:33:51;11.55;;;6.28;;
54241;SDS011;40156;51.080;17.082;2022-10-16T06:36:19;8.93;;;5.57;;
54241;SDS011;40156;51.080;17.082;2022-10-16T06:38:46;7.55;;;5.15;;
54241;SDS011;40156;51.080;17.082;2022-10-16T06:41:15;8.45;;;5.82;;
54241;SDS011;40156;51.080;17.082;2022-10-16T06:43:46;9.10;;;4.70;;
54241;SDS011;40156;51.080;17.082;2022-10-16T06:46:16;7.63;;;5.20;;
54241;SDS011;40156;51.080;17.082;2022-10-16T06:48:45;10.60;;;5.75;;
54241;SDS011;40156;51.080;17.082;2022-10-16T06:51:17;6.60;;;4.82;;
54241;SDS011;40156;51.080;17.082;2022-10-16T06:53:46;7.45;;;5.00;;
54241;SDS011;40156;51.080;17.082;2022-10-16T06:56:29;6.80;;;4.80;;
54241;SDS011;40156;51.080;17.082;2022-10-16T06:58:58;9.65;;;5.50;;
54241;SDS011;40156;51.080;17.082;2022-10-16T07:01:26;7.00;;;5.15;;
54241;SDS011;40156;51.080;17.082;2022-10-16T07:03:54;8.48;;;5.68;;
54241;SDS011;40156;51.080;17.082;2022-10-16T07:06:23;6.60;;;4.50;;
54241;SDS011;40156;51.080;17.082;2022-10-16T07:08:52;10.23;;;5.65;;
54241;SDS011;40156;51.080;17.082;2022-10-16T07:11:21;6.70;;;4.97;;
54241;SDS011;40156;51.080;17.082;2022-10-16T07:13:50;6.55;;;4.22;;
54241;SDS011;40156;51.080;17.082;2022-10-16T07:16:25;6.13;;;3.87;;
54241;SDS011;40156;51.080;17.082;2022-10-16T07:18:56;5.50;;;3.40;;
54241;SDS011;40156;51.080;17.082;2022-10-16T07:21:29;4.75;;;3.53;;
54241;SDS011;40156;51.080;17.082;2022-10-16T07:23:59;4.38;;;3.47;;
54241;SDS011;40156;51.080;17.082;2022-10-16T07:26:27;5.82;;;3.63;;
54241;SDS011;40156;51.080;17.082;2022-10-16T07:28:56;6.50;;;4.00;;
54241;SDS011;40156;51.080;17.082;2022-10-16T07:31:25;5.95;;;4.13;;
54241;SDS011;40156;51.080;17.082;2022-10-16T07:33:52;6.38;;;3.38;;
54241;SDS011;40156;51.080;17.082;2022-10-16T07:40:00;6.75;;;3.13;;
54241;SDS011;40156;51.080;17.082;2022-10-16T07:42:28;5.18;;;3.10;;
54241;SDS011;40156;51.080;17.082;2022-10-16T07:44:56;5.43;;;3.30;;
54241;SDS011;40156;51.080;17.082;2022-10-16T07:47:24;4.57;;;3.30;;
54241;SDS011;40156;51.080;17.082;2022-10-16T07:49:52;3.78;;;2.85;;
54241;SDS011;40156;51.080;17.082;2022-10-16T07:52:20;4.82;;;3.15;;
54241;SDS011;40156;51.080;17.082;2022-10-16T07:54:48;4.20;;;3.08;;
54241;SDS011;40156;51.080;17.082;2022-10-16T07:57:17;4.18;;;2.97;;
54241;SDS011;40156;51.080;17.082;2022-10-16T07:59:45;4.05;;;3.00;;
54241;SDS011;40156;51.080;17.082;2022-10-16T08:02:14;4.68;;;2.88;;
54241;SDS011;40156;51.080;17.082;2022-10-16T08:04:41;4.15;;;2.72;;
54241;SDS011;40156;51.080;17.082;2022-10-16T08:07:09;4.18;;;3.10;;
54241;SDS011;40156;51.080;17.082;2022-10-16T08:09:37;3.35;;;2.80;;
54241;SDS011;40156;51.080;17.082;2022-10-16T08:12:05;4.57;;;3.40;;
54241;SDS011;40156;51.080;17.082;2022-10-16T08:14:33;3.88;;;2.90;;
54241;SDS011;40156;51.080;17.082;2022-10-16T08:17:01;5.10;;;2.83;;
54241;SDS011;40156;51.080;17.082;2022-10-16T08:19:29;5.85;;;3.20;;
54241;SDS011;40156;51.080;17.082;2022-10-16T08:21:57;3.85;;;2.72;;
54241;SDS011;40156;51.080;17.082;2022-10-16T08:24:24;3.00;;;2.30;;
54241;SDS011;40156;51.080;17.082;2022-10-16T08:26:53;3.30;;;2.53;;
54241;SDS011;40156;51.080;17.082;2022-10-16T08:29:21;3.50;;;2.60;;
54241;SDS011;40156;51.080;17.082;2022-10-16T08:31:49;4.28;;;3.03;;
54241;SDS011;40156;51.080;17.082;2022-10-16T08:34:17;4.03;;;2.83;;
54241;SDS011;40156;51.080;17.082;2022-10-16T08:36:45;4.15;;;3.28;;
54241;SDS011;40156;51.080;17.082;2022-10-16T08:39:12;5.20;;;3.38;;
54241;SDS011;40156;51.080;17.082;2022-10-16T08:42:31;5.55;;;3.13;;
54241;SDS011;40156;51.080;17.082;2022-10-16T08:48:14;5.10;;;3.67;;
54241;SDS011;40156;51.080;17.082;2022-10-16T08:51:03;4.88;;;3.28;;
54241;SDS011;40156;51.080;17.082;2022-10-16T08:54:11;5.30;;;3.60;;
54241;SDS011;40156;51.080;17.082;2022-10-16T08:56:29;4.68;;;3.47;;
54241;SDS011;40156;51.080;17.082;2022-10-16T08:58:58;5.07;;;2.70;;
54241;SDS011;40156;51.080;17.082;2022-10-16T09:01:44;3.57;;;2.90;;
54241;SDS011;40156;51.080;17.082;2022-10-16T09:10:51;3.92;;;2.80;;
54241;SDS011;40156;51.080;17.082;2022-10-16T09:13:31;4.25;;;3.17;;
54241;SDS011;40156;51.080;17.082;2022-10-16T09:21:37;4.80;;;2.83;;
54241;SDS011;40156;51.080;17.082;2022-10-16T09:24:17;4.05;;;2.80;;
54241;SDS011;40156;51.080;17.082;2022-10-16T09:26:46;3.42;;;2.40;;
54241;SDS011;40156;51.080;17.082;2022-10-16T09:29:16;2.80;;;2.53;;
54241;SDS011;40156;51.080;17.082;2022-10-16T09:31:43;6.65;;;2.55;;
54241;SDS011;40156;51.080;17.082;2022-10-16T09:34:34;2.85;;;2.38;;
54241;SDS011;40156;51.080;17.082;2022-10-16T09:37:04;2.58;;;2.00;;
54241;SDS011;40156;51.080;17.082;2022-10-16T09:39:44;3.03;;;2.47;;
54241;SDS011;40156;51.080;17.082;2022-10-16T09:42:17;2.53;;;2.20;;
54241;SDS011;40156;51.080;17.082;2022-10-16T09:44:48;2.08;;;1.83;;
54241;SDS011;40156;51.080;17.082;2022-10-16T09:47:18;2.63;;;2.20;;
54241;SDS011;40156;51.080;17.082;2022-10-16T09:49:57;5.32;;;2.00;;
54241;SDS011;40156;51.080;17.082;2022-10-16T09:52:28;2.97;;;2.20;;
54241;SDS011;40156;51.080;17.082;2022-10-16T09:55:00;3.55;;;2.17;;
54241;SDS011;40156;51.080;17.082;2022-10-16T09:57:30;3.40;;;2.63;;
54241;SDS011;40156;51.080;17.082;2022-10-16T09:59:58;3.05;;;2.50;;
54241;SDS011;40156;51.080;17.082;2022-10-16T10:04:59;3.10;;;2.45;;
54241;SDS011;40156;51.080;17.082;2022-10-16T10:07:31;8.60;;;2.63;;
54241;SDS011;40156;51.080;17.082;2022-10-16T10:10:01;6.13;;;2.22;;
54241;SDS011;40156;51.080;17.082;2022-10-16T10:12:32;3.13;;;1.95;;
54241;SDS011;40156;51.080;17.082;2022-10-16T10:15:05;5.25;;;1.73;;
54241;SDS011;40156;51.080;17.082;2022-10-16T10:17:54;2.15;;;1.80;;
54241;SDS011;40156;51.080;17.082;2022-10-16T10:20:28;2.10;;;1.88;;
54241;SDS011;40156;51.080;17.082;2022-10-16T10:22:57;4.68;;;2.35;;
54241;SDS011;40156;51.080;17.082;2022-10-16T10:33:49;2.38;;;1.65;;
54241;SDS011;40156;51.080;17.082;2022-10-16T10:39:22;1.73;;;1.58;;
54241;SDS011;40156;51.080;17.082;2022-10-16T10:47:08;1.75;;;1.50;;
54241;SDS011;40156;51.080;17.082;2022-10-16T11:01:09;1.98;;;1.45;;
54241;SDS011;40156;51.080;17.082;2022-10-16T11:06:46;4.32;;;1.40;;
54241;SDS011;40156;51.080;17.082;2022-10-16T11:09:32;1.88;;;1.42;;
54241;SDS011;40156;51.080;17.082;2022-10-16T11:17:45;1.65;;;1.42;;
54241;SDS011;40156;51.080;17.082;2022-10-16T11:22:50;1.40;;;1.27;;
54241;SDS011;40156;51.080;17.082;2022-10-16T11:30:50;2.03;;;1.73;;
54241;SDS011;40156;51.080;17.082;2022-10-16T11:33:41;2.17;;;1.83;;
54241;SDS011;40156;51.080;17.082;2022-10-16T11:36:38;2.63;;;1.85;;
54241;SDS011;40156;51.080;17.082;2022-10-16T11:41:49;2.28;;;1.90;;
54241;SDS011;40156;51.080;17.082;2022-10-16T11:47:27;2.70;;;2.13;;
54241;SDS011;40156;51.080;17.082;2022-10-16T11:50:43;2.20;;;1.88;;
54241;SDS011;40156;51.080;17.082;2022-10-16T11:56:12;4.53;;;2.60;;
54241;SDS011;40156;51.080;17.082;2022-10-16T11:59:10;3.50;;;3.20;;
54241;SDS011;40156;51.080;17.082;2022-10-16T12:01:50;4.18;;;3.15;;
54241;SDS011;40156;51.080;17.082;2022-10-16T12:04:29;4.07;;;2.97;;
54241;SDS011;40156;51.080;17.082;2022-10-16T12:07:04;4.40;;;3.22;;
54241;SDS011;40156;51.080;17.082;2022-10-16T12:09:39;6.38;;;3.95;;
54241;SDS011;40156;51.080;17.082;2022-10-16T12:17:52;4.90;;;3.40;;
54241;SDS011;40156;51.080;17.082;2022-10-16T12:20:28;4.45;;;3.90;;
54241;SDS011;40156;51.080;17.082;2022-10-16T12:25:34;4.90;;;4.22;;
54241;SDS011;40156;51.080;17.082;2022-10-16T12:30:58;4.75;;;3.00;;
54241;SDS011;40156;51.080;17.082;2022-10-16T12:33:30;4.70;;;3.22;;
54241;SDS011;40156;51.080;17.082;2022-10-16T12:38:38;6.47;;;3.72;;
54241;SDS011;40156;51.080;17.082;2022-10-16T12:41:23;4.10;;;2.63;;
54241;SDS011;40156;51.080;17.082;2022-10-16T12:43:59;4.30;;;3.03;;
54241;SDS011;40156;51.080;17.082;2022-10-16T12:51:40;6.60;;;3.28;;
54241;SDS011;40156;51.080;17.082;2022-10-16T12:54:13;4.68;;;3.42;;
54241;SDS011;40156;51.080;17.082;2022-10-16T12:59:48;5.25;;;4.00;;
54241;SDS011;40156;51.080;17.082;2022-10-16T13:28:12;6.28;;;4.43;;
54241;SDS011;40156;51.080;17.082;2022-10-16T13:30:54;6.95;;;4.40;;
54241;SDS011;40156;51.080;17.082;2022-10-16T13:40:18;13.52;;;5.10;;
54241;SDS011;40156;51.080;17.082;2022-10-16T13:43:08;7.55;;;5.03;;
54241;SDS011;40156;51.080;17.082;2022-10-16T13:45:56;6.30;;;4.72;;
54241;SDS011;40156;51.080;17.082;2022-10-16T13:51:54;10.43;;;7.07;;
54241;SDS011;40156;51.080;17.082;2022-10-16T13:54:43;7.32;;;6.15;;
54241;SDS011;40156;51.080;17.082;2022-10-16T13:57:31;9.10;;;6.03;;
54241;SDS011;40156;51.080;17.082;2022-10-16T14:00:24;10.15;;;5.78;;
54241;SDS011;40156;51.080;17.082;2022-10-16T14:03:15;8.38;;;5.10;;
54241;SDS011;40156;51.080;17.082;2022-10-16T14:06:03;8.10;;;6.13;;
54241;SDS011;40156;51.080;17.082;2022-10-16T14:11:49;14.43;;;9.20;;
54241;SDS011;40156;51.080;17.082;2022-10-16T14:14:40;11.63;;;6.65;;
54241;SDS011;40156;51.080;17.082;2022-10-16T14:21:27;8.10;;;5.55;;
54241;SDS011;40156;51.080;17.082;2022-10-16T14:27:55;9.20;;;6.75;;
54241;SDS011;40156;51.080;17.082;2022-10-16T14:31:00;9.38;;;6.50;;
54241;SDS011;40156;51.080;17.082;2022-10-16T14:33:49;8.98;;;6.15;;
54241;SDS011;40156;51.080;17.082;2022-10-16T14:36:40;6.13;;;4.20;;
54241;SDS011;40156;51.080;17.082;2022-10-16T14:39:29;5.77;;;3.83;;
54241;SDS011;40156;51.080;17.082;2022-10-16T14:42:18;8.68;;;5.55;;
54241;SDS011;40156;51.080;17.082;2022-10-16T14:45:08;8.55;;;6.10;;
54241;SDS011;40156;51.080;17.082;2022-10-16T14:47:58;13.50;;;7.25;;
54241;SDS011;40156;51.080;17.082;2022-10-16T14:53:38;10.00;;;6.10;;
54241;SDS011;40156;51.080;17.082;2022-10-16T14:56:29;8.93;;;5.97;;
54241;SDS011;40156;51.080;17.082;2022-10-16T14:59:37;8.40;;;6.03;;
54241;SDS011;40156;51.080;17.082;2022-10-16T15:02:32;9.75;;;5.95;;
54241;SDS011;40156;51.080;17.082;2022-10-16T15:05:25;10.38;;;6.78;;
54241;SDS011;40156;51.080;17.082;2022-10-16T15:08:12;9.48;;;7.13;;
54241;SDS011;40156;51.080;17.082;2022-10-16T15:10:59;11.77;;;8.02;;
54241;SDS011;40156;51.080;17.082;2022-10-16T15:13:46;11.10;;;7.35;;
54241;SDS011;40156;51.080;17.082;2022-10-16T15:16:33;11.48;;;6.20;;
54241;SDS011;40156;51.080;17.082;2022-10-16T15:19:19;7.38;;;5.80;;
54241;SDS011;40156;51.080;17.082;2022-10-16T15:21:48;9.75;;;6.68;;
54241;SDS011;40156;51.080;17.082;2022-10-16T15:24:16;9.95;;;5.93;;
54241;SDS011;40156;51.080;17.082;2022-10-16T15:26:48;8.07;;;6.03;;
54241;SDS011;40156;51.080;17.082;2022-10-16T15:29:15;6.75;;;5.40;;
54241;SDS011;40156;51.080;17.082;2022-10-16T15:31:45;6.20;;;5.15;;
54241;SDS011;40156;51.080;17.082;2022-10-16T15:34:13;6.57;;;5.40;;
54241;SDS011;40156;51.080;17.082;2022-10-16T15:36:42;7.93;;;5.78;;
54241;SDS011;40156;51.080;17.082;2022-10-16T15:39:12;8.70;;;6.43;;
54241;SDS011;40156;51.080;17.082;2022-10-16T15:41:42;12.52;;;7.30;;
54241;SDS011;40156;51.080;17.082;2022-10-16T15:44:10;8.32;;;6.45;;
54241;SDS011;40156;51.080;17.082;2022-10-16T15:46:39;10.52;;;6.65;;
54241;SDS011;40156;51.080;17.082;2022-10-16T15:49:07;10.93;;;6.53;;
54241;SDS011;40156;51.080;17.082;2022-10-16T15:51:40;7.78;;;5.95;;
54241;SDS011;40156;51.080;17.082;2022-10-16T15:54:09;9.45;;;6.20;;
54241;SDS011;40156;51.080;17.082;2022-10-16T15:56:43;10.25;;;6.28;;
54241;SDS011;40156;51.080;17.082;2022-10-16T15:59:10;15.77;;;10.70;;
54241;SDS011;40156;51.080;17.082;2022-10-16T16:01:38;11.63;;;7.28;;
54241;SDS011;40156;51.080;17.082;2022-10-16T16:04:07;11.32;;;6.75;;
54241;SDS011;40156;51.080;17.082;2022-10-16T16:06:42;10.63;;;7.25;;
54241;SDS011;40156;51.080;17.082;2022-10-16T16:09:11;11.43;;;7.03;;
54241;SDS011;40156;51.080;17.082;2022-10-16T16:11:39;10.02;;;7.43;;
54241;SDS011;40156;51.080;17.082;2022-10-16T16:14:11;13.45;;;7.30;;
54241;SDS011;40156;51.080;17.082;2022-10-16T16:16:41;14.27;;;8.20;;
54241;SDS011;40156;51.080;17.082;2022-10-16T16:19:10;13.75;;;8.00;;
54241;SDS011;40156;51.080;17.082;2022-10-16T16:21:41;11.80;;;8.60;;
54241;SDS011;40156;51.080;17.082;2022-10-16T16:24:09;12.02;;;8.65;;
54241;SDS011;40156;51.080;17.082;2022-10-16T16:26:37;15.05;;;8.80;;
54241;SDS011;40156;51.080;17.082;2022-10-16T16:29:05;16.60;;;9.75;;
54241;SDS011;40156;51.080;17.082;2022-10-16T16:31:34;14.02;;;8.57;;
54241;SDS011;40156;51.080;17.082;2022-10-16T16:34:05;15.05;;;9.77;;
54241;SDS011;40156;51.080;17.082;2022-10-16T16:36:34;14.45;;;9.52;;
54241;SDS011;40156;51.080;17.082;2022-10-16T16:39:02;15.45;;;9.55;;
54241;SDS011;40156;51.080;17.082;2022-10-16T16:41:33;15.57;;;9.07;;
54241;SDS011;40156;51.080;17.082;2022-10-16T16:44:03;12.82;;;9.30;;
54241;SDS011;40156;51.080;17.082;2022-10-16T16:46:33;15.25;;;10.05;;
54241;SDS011;40156;51.080;17.082;2022-10-16T16:49:02;14.57;;;9.45;;
54241;SDS011;40156;51.080;17.082;2022-10-16T16:51:31;15.93;;;9.75;;
54241;SDS011;40156;51.080;17.082;2022-10-16T16:54:03;14.48;;;9.65;;
54241;SDS011;40156;51.080;17.082;2022-10-16T16:56:32;14.60;;;10.02;;
54241;SDS011;40156;51.080;17.082;2022-10-16T16:59:01;13.93;;;8.93;;
54241;SDS011;40156;51.080;17.082;2022-10-16T17:01:29;13.35;;;9.05;;
54241;SDS011;40156;51.080;17.082;2022-10-16T17:03:57;14.20;;;9.50;;
54241;SDS011;40156;51.080;17.082;2022-10-16T17:06:27;15.73;;;9.73;;
54241;SDS011;40156;51.080;17.082;2022-10-16T17:08:56;16.92;;;10.50;;
54241;SDS011;40156;51.080;17.082;2022-10-16T17:11:26;16.60;;;10.13;;
54241;SDS011;40156;51.080;17.082;2022-10-16T17:13:55;16.70;;;9.82;;
54241;SDS011;40156;51.080;17.082;2022-10-16T17:16:27;15.20;;;9.82;;
54241;SDS011;40156;51.080;17.082;2022-10-16T17:19:01;17.65;;;11.43;;
54241;SDS011;40156;51.080;17.082;2022-10-16T17:23:57;16.77;;;10.95;;
54241;SDS011;40156;51.080;17.082;2022-10-16T17:26:25;18.02;;;11.30;;
54241;SDS011;40156;51.080;17.082;2022-10-16T17:28:54;15.30;;;10.65;;
54241;SDS011;40156;51.080;17.082;2022-10-16T17:31:26;17.67;;;10.90;;
54241;SDS011;40156;51.080;17.082;2022-10-16T17:33:57;17.20;;;11.00;;
54241;SDS011;40156;51.080;17.082;2022-10-16T17:36:30;21.70;;;10.23;;
54241;SDS011;40156;51.080;17.082;2022-10-16T17:39:09;17.73;;;10.55;;
54241;SDS011;40156;51.080;17.082;2022-10-16T17:41:42;15.70;;;10.30;;
54241;SDS011;40156;51.080;17.082;2022-10-16T17:44:10;17.15;;;9.85;;
54241;SDS011;40156;51.080;17.082;2022-10-16T17:46:41;16.00;;;9.63;;
54241;SDS011;40156;51.080;17.082;2022-10-16T17:49:08;17.65;;;11.15;;
54241;SDS011;40156;51.080;17.082;2022-10-16T17:51:37;16.95;;;10.52;;
54241;SDS011;40156;51.080;17.082;2022-10-16T17:54:06;16.73;;;10.50;;